Pewamo, MI (48873)

12:12 AM EDT en Mayo 23, 2015 (GMT -0400)
KMIWESTP2 | | Change Station
CLOSE
Current Station
Estación meteorológica personal
Location: Westphalia, MI
Altura: 788 ft
Estaciones meteorológicas cercanas
Aviso en curso: Frost Advisory

Alt 788 ft 42.93 °N, 84.79 °W | Updated 3 seconds ago

Despejado
Despejado
45.5 ° F
Sensación térmica 46 ° F
N
0.0
Viento Variable Viento desde Sur
Gusts 0.0 mph

Hoy
Alta -- | Baja -- ° F
--% Posibilidad de precipitaciones
Ayer
Alta -- | Baja -- ° F
Precip. -- pul
6:09 AM 9:03 PM
Creciente, 26% visible
Presión 30.31 pul
Visibilidad 10.0 Millas
Nubes Despejado
Vientos helados 46 ° F
Punto de rocío 41 ° F
Humedad 85%
Precipitaciones 0.00 pul
Espesor de la nieve No disponible.
UV 0 de una escala de 12
Polen 8.00 de una escala de 12
Calidad del aire No disponible.
Flu Activity Sporadic
METAR KY70 230353Z AUTO 00000KT 10SM CLR 09/00 A3031 RMK AO2 T00850002

More Conditions Fewer Conditions

Presión 30.31 pul
Visibilidad 10.0 Millas
Nubes Despejado
Vientos helados 46 ° F
Punto de rocío 41 ° F
Humedad 85%
Precipitaciones 0.00 pul
Espesor de la nieve No disponible.
UV 0 de una escala de 12
Polen 8.00 de una escala de 12
Calidad del aire No disponible.
Flu Activity Sporadic
METAR KY70 230353Z AUTO 00000KT 10SM CLR 09/00 A3031 RMK AO2 T00850002

More Conditions Fewer Conditions

10-Day Weather Forecast

Almanac

Astronomía

May. 23, 2015 Salida Puesta
Hora real
Crepúsculo civil
Crepúsculo náutico
Crepúsculo astronómico
Luna
Horas de luz
Horas de luz
Tomorrow will be .
, % of the Moon is Illuminated

Extremos de hoy

Máximos del estado Bajos del estado

Community

WunderPhotos

Upload Photos

1,823,392 ¡fotos cargadas!

WunderBlogs® & News

Nearby

Calidad del aire

  Calidad del aire Índice AQ Contaminante
Not available.

Grosos de nieve

Estación Profundido Altura

Actividad de terremotos

Ciudad Distance Mag. Tiempo y dato
Magnitud mínima muestra es 2,5.

Temperaturas de aguas costeras

Lugar Temperatura

Stations

Estaciones meteorológicas cercanas

Ubicación de la estación Temp. Vientos helados Punto de rocío Humedad Viento Precip. Alt Actualizado Tipo
                   
Frost Advisory
Statement as of 10:00 PM EDT en Mayo 22, 2015

... Frost advisory remains in effect until 8 am EDT Saturday...

Hazardous weather...

* areas of frost are expected overnight

* temperatures will fall into the 30s.

Impacts...

* fruit trees and other tender vegetation may be damaged if
   precautionary measures are not taken.

Precautionary/preparedness actions...

* a frost advisory is issued when frost is expected to develop
   during the growing season. Those with agricultural interests
   in the advised area are advised to harvest or protect tender
   vegetation. Also... potted plants normally left outdoors
   should be covered or brought inside away from the cold.